Time;durP1;ratioP1;P1;durP2;ratioP2;P2;SDS_P1;SDS_P2;PMS_P1;PMS_P2;Temp;Humidity;BMP_temperature;BMP_pressure;BME280_temperature;BME280_humidity;BME280_pressure;Samples;Min_cycle;Max_cycle;Signal;HPM_P1;HPM_P2
2022/07/14 00:02:04;;;;;;;2.70;2.50;;;21.90;77.10;;;;;;6229646;28;20225;-64
2022/07/14 00:05:08;;;;;;;2.10;1.90;;;21.90;78.00;;;;;;6229619;28;20238;-64
2022/07/14 00:08:11;;;;;;;2.57;2.17;;;21.90;76.90;;;;;;6227094;28;20229;-64
2022/07/14 00:11:15;;;;;;;3.30;2.60;;;21.90;76.50;;;;;;6226167;28;20552;-65
2022/07/14 00:14:18;;;;;;;2.10;1.87;;;21.90;75.70;;;;;;6226508;28;20558;-65
2022/07/14 00:17:22;;;;;;;2.23;2.03;;;21.90;75.50;;;;;;6226579;28;20232;-65
2022/07/14 00:20:26;;;;;;;2.10;2.00;;;21.80;75.30;;;;;;6226793;28;20239;-64
2022/07/14 00:23:29;;;;;;;2.13;2.03;;;21.80;75.70;;;;;;6227760;28;20232;-64
2022/07/14 00:26:32;;;;;;;2.23;2.13;;;21.80;76.40;;;;;;6226128;28;20558;-64
2022/07/14 00:29:36;;;;;;;3.83;3.27;;;21.80;77.10;;;;;;6225626;28;20675;-64
2022/07/14 00:32:40;;;;;;;2.73;2.20;;;21.70;77.50;;;;;;6227947;28;20233;-63
2022/07/14 00:35:44;;;;;;;2.70;2.50;;;21.60;78.10;;;;;;6231264;28;20579;-63
2022/07/14 00:38:47;;;;;;;2.80;2.60;;;21.60;78.80;;;;;;6230451;28;20225;-63
2022/07/14 00:41:50;;;;;;;3.17;2.23;;;21.50;79.20;;;;;;6230518;28;20545;-63
2022/07/14 00:44:53;;;;;;;2.70;2.50;;;21.50;79.90;;;;;;6230344;28;20339;-63
2022/07/14 00:47:58;;;;;;;2.80;2.50;;;21.50;80.40;;;;;;6230577;28;20201;-63
2022/07/14 00:51:01;;;;;;;2.77;2.47;;;21.50;80.40;;;;;;6231765;28;20209;-64
2022/07/14 00:54:05;;;;;;;2.43;2.23;;;21.50;80.40;;;;;;6230666;28;20296;-64
2022/07/14 00:57:08;;;;;;;2.73;2.07;;;21.50;80.60;;;;;;6222752;28;20215;-64
2022/07/14 01:00:13;;;;;;;2.40;2.20;;;21.50;81.00;;;;;;6231256;28;20233;-64
2022/07/14 01:03:18;;;;;;;2.83;2.60;;;21.50;81.30;;;;;;6232236;28;20248;-64
2022/07/14 01:06:22;;;;;;;3.13;2.47;;;21.50;81.40;;;;;;6231641;28;20233;-64
2022/07/14 01:09:25;;;;;;;2.80;2.60;;;21.40;81.60;;;;;;6231976;28;20233;-64
2022/07/14 01:12:28;;;;;;;2.67;2.47;;;21.30;81.90;;;;;;6232024;28;20225;-64
2022/07/14 01:15:32;;;;;;;2.23;2.03;;;21.30;82.30;;;;;;6231143;28;20543;-64
2022/07/14 01:18:36;;;;;;;2.60;2.40;;;21.20;82.20;;;;;;6231499;28;20228;-64
2022/07/14 01:21:41;;;;;;;2.43;2.23;;;21.10;82.50;;;;;;6231362;28;20291;-63
2022/07/14 01:24:45;;;;;;;2.27;2.13;;;21.10;82.20;;;;;;6229208;28;20236;-62
2022/07/14 01:27:49;;;;;;;2.67;2.47;;;21.10;82.10;;;;;;6229285;28;20350;-63
2022/07/14 01:30:52;;;;;;;2.63;2.43;;;21.10;82.90;;;;;;6229686;28;20232;-63
2022/07/14 01:33:55;;;;;;;2.77;2.53;;;21.10;83.20;;;;;;6230650;28;20233;-63
2022/07/14 01:36:59;;;;;;;2.97;2.53;;;21.10;82.60;;;;;;6228604;28;20691;-65
2022/07/14 01:40:03;;;;;;;2.20;2.00;;;21.00;82.30;;;;;;6228770;28;20675;-65
2022/07/14 01:43:06;;;;;;;2.30;1.77;;;21.10;82.30;;;;;;6228765;28;20233;-66
2022/07/14 01:46:09;;;;;;;2.77;2.20;;;21.00;82.50;;;;;;6228677;28;20233;-66
2022/07/14 01:49:13;;;;;;;2.23;2.03;;;21.00;82.70;;;;;;6228589;28;20594;-65
2022/07/14 01:52:17;;;;;;;2.17;1.80;;;20.90;82.30;;;;;;6228816;28;20267;-65
2022/07/14 01:55:20;;;;;;;2.40;2.20;;;20.90;82.50;;;;;;6228568;28;20252;-65
2022/07/14 01:58:24;;;;;;;2.10;1.90;;;20.90;82.40;;;;;;6228410;28;20629;-65
2022/07/14 02:01:42;;;;;;;2.13;2.03;;;20.90;82.50;;;;;;6228708;28;20237;-66
2022/07/14 02:04:45;;;;;;;2.30;2.10;;;20.90;82.40;;;;;;6228316;28;20380;-66
2022/07/14 02:07:50;;;;;;;2.43;2.23;;;20.90;82.40;;;;;;6228378;28;20256;-64
2022/07/14 02:14:14;;;;;;;1.90;1.80;;;20.80;82.80;;;;;;6228186;28;20225;-63
2022/07/14 02:17:17;;;;;;;1.93;1.83;;;20.70;82.80;;;;;;6228066;28;20583;-63
2022/07/14 02:20:20;;;;;;;2.07;1.97;;;20.70;83.50;;;;;;6228225;28;20240;-64
2022/07/14 02:23:24;;;;;;;2.50;2.30;;;20.70;83.10;;;;;;6228329;28;20235;-64
2022/07/14 02:26:27;;;;;;;2.73;2.23;;;20.70;84.10;;;;;;6229364;28;20239;-64
2022/07/14 02:29:32;;;;;;;2.23;1.97;;;20.70;84.20;;;;;;6229979;28;20237;-64
2022/07/14 02:32:35;;;;;;;2.53;2.33;;;20.60;84.20;;;;;;6229744;28;20320;-64
2022/07/14 02:35:39;;;;;;;1.93;1.83;;;20.60;84.40;;;;;;6228626;28;20229;-64
2022/07/14 02:38:43;;;;;;;2.30;2.17;;;20.60;84.30;;;;;;6229170;28;20318;-64
2022/07/14 02:41:46;;;;;;;2.47;1.70;;;20.60;83.80;;;;;;6228963;28;20535;-62
2022/07/14 02:44:50;;;;;;;4.07;2.40;;;20.60;83.70;;;;;;6227356;28;20617;-62
2022/07/14 02:47:53;;;;;;;2.47;2.03;;;20.60;83.50;;;;;;6227498;28;20236;-63
2022/07/14 02:51:00;;;;;;;2.50;2.30;;;20.60;83.20;;;;;;6227348;28;20225;-62
2022/07/14 02:54:04;;;;;;;2.07;1.97;;;20.60;82.50;;;;;;6227365;28;20194;-62
2022/07/14 02:57:07;;;;;;;2.13;2.03;;;20.60;82.10;;;;;;6226879;28;20209;-62
2022/07/14 03:00:11;;;;;;;3.27;1.90;;;20.50;82.20;;;;;;6226501;28;20240;-61
2022/07/14 03:03:15;;;;;;;3.00;2.80;;;20.50;82.30;;;;;;6218796;28;20332;-61
2022/07/14 03:06:19;;;;;;;2.20;2.00;;;20.50;82.60;;;;;;6226247;28;20233;-61
2022/07/14 03:09:24;;;;;;;2.80;1.73;;;20.50;83.00;;;;;;6226229;28;20244;-62
2022/07/14 03:12:27;;;;;;;2.10;1.77;;;20.50;83.10;;;;;;6226343;28;20699;-62
2022/07/14 03:15:32;;;;;;;3.10;2.30;;;20.40;82.80;;;;;;6226358;28;20243;-62
2022/07/14 03:18:35;;;;;;;2.47;2.30;;;20.30;82.70;;;;;;6226584;28;20343;-62
2022/07/14 03:21:38;;;;;;;3.67;2.40;;;20.20;82.90;;;;;;6226246;28;20365;-62
2022/07/14 03:24:43;;;;;;;2.27;2.17;;;20.10;83.00;;;;;;6226927;28;20248;-63
2022/07/14 03:27:47;;;;;;;3.20;2.13;;;20.10;83.10;;;;;;6226534;28;20245;-62
2022/07/14 03:30:55;;;;;;;2.20;2.10;;;20.10;83.80;;;;;;6226477;28;20232;-62
2022/07/14 03:33:59;;;;;;;2.37;2.20;;;20.10;84.10;;;;;;6226108;28;20224;-62
2022/07/14 03:37:02;;;;;;;2.43;2.23;;;20.10;84.60;;;;;;6226449;28;20233;-62
2022/07/14 03:40:08;;;;;;;2.30;2.20;;;20.20;85.40;;;;;;6225906;28;20233;-62
2022/07/14 03:43:12;;;;;;;4.00;2.17;;;20.20;85.40;;;;;;6226200;28;20240;-62
2022/07/14 03:46:15;;;;;;;4.23;2.23;;;20.30;85.50;;;;;;6226031;28;20229;-62
2022/07/14 03:49:18;;;;;;;4.50;1.90;;;20.30;85.50;;;;;;6225674;28;20232;-62
2022/07/14 03:52:21;;;;;;;2.40;2.07;;;20.40;84.70;;;;;;6225703;28;20244;-62
2022/07/14 03:55:26;;;;;;;3.93;1.80;;;20.50;85.10;;;;;;6225775;28;20228;-62
2022/07/14 03:58:29;;;;;;;4.03;1.97;;;20.60;83.60;;;;;;6225658;28;20241;-62
2022/07/14 04:01:32;;;;;;;2.10;2.00;;;20.70;82.80;;;;;;6225853;28;20247;-62
2022/07/14 04:04:36;;;;;;;2.63;2.27;;;20.70;82.60;;;;;;6225991;28;20569;-62
2022/07/14 04:07:39;;;;;;;2.40;2.17;;;20.80;82.60;;;;;;6220417;28;20237;-62
2022/07/14 04:10:43;;;;;;;2.83;2.63;;;21.00;81.70;;;;;;6225257;28;20379;-63
2022/07/14 04:13:46;;;;;;;2.93;1.90;;;21.00;81.40;;;;;;6225487;28;20221;-62
2022/07/14 04:16:50;;;;;;;3.20;2.07;;;21.10;81.00;;;;;;6225633;28;20236;-62
2022/07/14 04:19:53;;;;;;;2.80;2.37;;;21.30;80.20;;;;;;6225164;28;21045;-62
2022/07/14 04:22:56;;;;;;;2.60;1.90;;;21.40;79.40;;;;;;6225429;28;20709;-62
2022/07/14 04:26:02;;;;;;;3.60;2.50;;;21.40;79.00;;;;;;6225961;28;20279;-61
2022/07/14 04:29:05;;;;;;;2.40;2.20;;;21.50;80.50;;;;;;6225802;28;20579;-61
2022/07/14 04:32:10;;;;;;;2.63;2.13;;;21.50;79.30;;;;;;6225450;28;20235;-61
2022/07/14 04:35:13;;;;;;;2.20;2.10;;;21.60;79.10;;;;;;6225696;28;20320;-61
2022/07/14 04:38:17;;;;;;;1.90;1.80;;;21.60;79.50;;;;;;6225318;28;20247;-62
2022/07/14 04:41:22;;;;;;;2.37;2.17;;;21.60;79.50;;;;;;6225312;28;20236;-62
2022/07/14 04:44:25;;;;;;;3.93;2.80;;;21.70;79.50;;;;;;6224626;28;20225;-62
2022/07/14 04:47:28;;;;;;;2.40;2.30;;;21.80;78.50;;;;;;6225004;28;20225;-61
2022/07/14 04:53:52;;;;;;;3.70;2.20;;;22.10;77.00;;;;;;6225717;28;20225;-61
2022/07/14 04:56:57;;;;;;;4.80;2.90;;;22.40;75.80;;;;;;6225106;28;20240;-61
2022/07/14 05:00:03;;;;;;;4.90;2.87;;;22.60;74.00;;;;;;6225046;28;20248;-61
2022/07/14 05:03:07;;;;;;;2.80;2.27;;;22.80;72.60;;;;;;6225266;28;20229;-62
2022/07/14 05:06:11;;;;;;;2.87;2.30;;;22.90;72.50;;;;;;6224875;28;20216;-63
2022/07/14 05:09:14;;;;;;;3.23;2.37;;;23.00;71.70;;;;;;6220845;28;20244;-63
2022/07/14 05:12:19;;;;;;;2.93;2.30;;;23.20;71.00;;;;;;6224951;28;20631;-62
2022/07/14 05:15:22;;;;;;;3.17;2.40;;;23.20;70.50;;;;;;6224907;28;20558;-62
2022/07/14 05:18:25;;;;;;;3.60;2.70;;;23.20;69.50;;;;;;6225057;28;20233;-62
2022/07/14 05:21:30;;;;;;;2.70;2.23;;;23.30;69.20;;;;;;6229323;28;20256;-62
2022/07/14 05:24:34;;;;;;;3.50;2.37;;;23.30;68.80;;;;;;6229688;28;20225;-62
2022/07/14 05:27:39;;;;;;;4.00;2.50;;;23.50;69.10;;;;;;6229874;28;20294;-62
2022/07/14 05:30:43;;;;;;;3.30;2.43;;;23.50;68.70;;;;;;6228997;28;20237;-63
2022/07/14 05:33:46;;;;;;;2.83;2.33;;;23.60;68.00;;;;;;6229380;28;20244;-63
2022/07/14 05:36:49;;;;;;;4.37;2.37;;;23.70;68.00;;;;;;6229309;28;20235;-63
2022/07/14 05:39:53;;;;;;;4.97;2.50;;;23.90;65.60;;;;;;6228759;28;20240;-63
2022/07/14 05:42:57;;;;;;;4.77;2.77;;;23.90;65.80;;;;;;6228342;28;20239;-63
2022/07/14 05:46:05;;;;;;;5.37;2.60;;;24.00;65.40;;;;;;6228248;28;20228;-63
2022/07/14 05:49:08;;;;;;;3.43;3.10;;;24.10;65.20;;;;;;6227590;28;20282;-63
2022/07/14 05:52:12;;;;;;;6.10;2.70;;;24.20;64.50;;;;;;6227552;28;20221;-63
2022/07/14 05:55:15;;;;;;;3.83;2.83;;;24.60;63.80;;;;;;6227109;28;20228;-63
2022/07/14 05:58:19;;;;;;;3.60;2.60;;;24.90;62.20;;;;;;6225916;28;20688;-64
2022/07/14 06:01:23;;;;;;;3.97;2.43;;;25.10;61.20;;;;;;6228203;28;20235;-63
2022/07/14 06:04:26;;;;;;;4.10;2.63;;;25.20;61.50;;;;;;6227909;28;20225;-63
2022/07/14 06:07:29;;;;;;;5.87;2.93;;;25.10;59.40;;;;;;6227775;28;20220;-63
2022/07/14 06:10:32;;;;;;;7.27;2.90;;;25.00;59.40;;;;;;6226685;28;20221;-64
2022/07/14 06:13:39;;;;;;;6.47;2.93;;;24.90;59.90;;;;;;6227004;28;20225;-64
2022/07/14 06:16:43;;;;;;;4.10;3.10;;;24.80;59.60;;;;;;6205601;28;20240;-64
2022/07/14 06:19:46;;;;;;;7.73;2.97;;;24.90;59.70;;;;;;6204607;28;20244;-63
2022/07/14 06:22:50;;;;;;;9.03;3.77;;;25.20;62.10;;;;;;6203708;28;20308;-63
2022/07/14 06:25:53;;;;;;;7.37;3.40;;;25.80;59.70;;;;;;6203488;28;20675;-63
2022/07/14 06:28:58;;;;;;;5.33;2.60;;;26.20;57.90;;;;;;6203538;28;20233;-64
2022/07/14 06:32:03;;;;;;;3.20;2.67;;;26.90;57.90;;;;;;6203453;28;20240;-64
2022/07/14 06:35:07;;;;;;;4.33;3.60;;;27.90;55.80;;;;;;6204033;28;20225;-63
2022/07/14 06:38:11;;;;;;;5.67;3.77;;;28.30;53.40;;;;;;6203951;28;20229;-63
2022/07/14 06:41:14;;;;;;;3.73;3.13;;;28.40;52.60;;;;;;6203756;28;20243;-63
2022/07/14 06:44:19;;;;;;;10.00;2.97;;;29.20;51.90;;;;;;6203293;28;20233;-63
2022/07/14 06:47:30;;;;;;;5.27;2.93;;;29.90;50.30;;;;;;6215832;28;20243;-63
2022/07/14 06:50:34;;;;;;;3.47;2.53;;;30.00;49.70;;;;;;6226681;28;20232;-64
2022/07/14 06:53:37;;;;;;;5.10;2.80;;;29.60;50.50;;;;;;6226989;28;20551;-63
2022/07/14 06:56:40;;;;;;;4.60;2.90;;;29.30;50.50;;;;;;6226947;28;20243;-63
2022/07/14 06:59:45;;;;;;;9.00;2.90;;;29.00;50.90;;;;;;6225688;28;20260;-64
2022/07/14 07:02:48;;;;;;;5.00;2.60;;;29.00;51.00;;;;;;6226288;28;20655;-63
2022/07/14 07:09:12;;;;;;;6.13;2.85;;;30.10;49.90;;;;;;6226919;28;20243;-64
2022/07/14 07:12:15;;;;;;;3.80;2.30;;;30.30;48.30;;;;;;6226933;28;20236;-64
2022/07/14 07:15:20;;;;;;;3.65;2.42;;;30.40;48.50;;;;;;6226760;28;20233;-63
2022/07/14 07:18:23;;;;;;;4.20;2.33;;;30.50;48.70;;;;;;6226856;28;20236;-65
2022/07/14 07:21:26;;;;;;;2.65;2.45;;;31.10;48.10;;;;;;6226379;28;20699;-64
2022/07/14 07:24:30;;;;;;;2.90;2.65;;;31.30;46.30;;;;;;6226523;28;20694;-66
2022/07/14 07:27:33;;;;;;;4.07;2.45;;;31.30;46.50;;;;;;6226552;28;20225;-63
2022/07/14 07:30:37;;;;;;;3.42;2.95;;;31.10;46.10;;;;;;6226534;28;20243;-66
2022/07/14 07:33:41;;;;;;;4.53;2.35;;;30.60;47.30;;;;;;6226001;28;20229;-63
2022/07/14 07:36:44;;;;;;;2.90;2.67;;;30.10;48.50;;;;;;6226103;28;20238;-64
2022/07/14 07:40:08;;;;;;;2.90;2.70;;;29.60;49.50;;;;;;6226016;28;20244;-64
2022/07/14 07:43:11;;;;;;;4.72;2.70;;;29.50;49.80;;;;;;6213971;28;20232;-63
2022/07/14 07:46:16;;;;;;;4.63;2.35;;;30.10;49.50;;;;;;6213946;28;20229;-62
2022/07/14 07:49:19;;;;;;;3.70;2.60;;;30.80;47.90;;;;;;6200243;28;20319;-65
2022/07/14 07:52:23;;;;;;;3.45;2.47;;;31.80;48.00;;;;;;6224613;28;20230;-64
2022/07/14 07:55:26;;;;;;;4.70;2.58;;;34.90;44.40;;;;;;6224497;28;20259;-64
2022/07/14 07:58:30;;;;;;;6.22;2.70;;;37.20;40.30;;;;;;6218501;28;20296;-64
2022/07/14 08:01:34;;;;;;;2.90;2.40;;;38.30;37.20;;;;;;6200353;28;20229;-63
2022/07/14 08:04:38;;;;;;;3.65;2.47;;;38.70;35.60;;;;;;6200383;28;20695;-63
2022/07/14 08:07:41;;;;;;;4.22;2.58;;;38.70;34.90;;;;;;6200821;28;20243;-63
2022/07/14 08:10:44;;;;;;;3.20;2.40;;;38.20;34.80;;;;;;6200365;28;20229;-64
2022/07/14 08:13:47;;;;;;;4.40;2.40;;;37.30;35.50;;;;;;6200328;28;20232;-64
2022/07/14 08:16:52;;;;;;;5.15;2.25;;;36.50;36.40;;;;;;6216414;28;20578;-63
2022/07/14 08:19:55;;;;;;;3.97;2.75;;;36.10;37.90;;;;;;6217543;28;20278;-65
2022/07/14 08:22:59;;;;;;;4.38;2.45;;;35.80;37.30;;;;;;6224866;28;20646;-63
2022/07/14 08:26:02;;;;;;;4.60;2.70;;;35.10;38.00;;;;;;6227427;28;20239;-63
2022/07/14 08:29:05;;;;;;;5.88;2.90;;;34.40;38.90;;;;;;6226092;28;20238;-63
2022/07/14 08:32:09;;;;;;;3.15;2.55;;;33.80;39.70;;;;;;6225293;28;20242;-63
2022/07/14 08:35:14;;;;;;;4.55;2.65;;;33.20;40.20;;;;;;6225254;28;20232;-63
2022/07/14 08:38:18;;;;;;;5.18;2.50;;;32.90;42.00;;;;;;6224736;28;20229;-64
2022/07/14 08:41:21;;;;;;;5.07;2.60;;;32.60;42.70;;;;;;6225308;28;20228;-64
2022/07/14 08:44:25;;;;;;;6.65;2.47;;;32.60;43.20;;;;;;6225315;28;20228;-64
2022/07/14 08:47:29;;;;;;;3.20;2.45;;;32.70;43.20;;;;;;6225168;28;20339;-64
2022/07/14 08:50:33;;;;;;;5.72;2.97;;;32.90;43.00;;;;;;6224876;28;20228;-63
2022/07/14 08:53:38;;;;;;;6.82;3.08;;;32.70;43.50;;;;;;6224707;28;20231;-64
2022/07/14 08:56:41;;;;;;;3.53;2.78;;;32.70;43.30;;;;;;6229371;28;20228;-63
2022/07/14 08:59:45;;;;;;;5.47;2.60;;;32.70;44.00;;;;;;6229189;28;20244;-63
2022/07/14 09:02:51;;;;;;;2.83;2.55;;;32.70;42.90;;;;;;6229498;28;20232;-63
2022/07/14 09:06:54;;;;;;;2.63;2.42;;;32.40;42.70;;;;;;6229386;28;20235;-63
2022/07/14 09:10:02;;;;;;;5.63;2.58;;;32.10;44.20;;;;;;6229884;28;20244;-63
2022/07/14 09:13:13;;;;;;;4.28;2.63;;;31.90;43.00;;;;;;6229333;28;20224;-63
2022/07/14 09:16:19;;;;;;;2.83;2.33;;;32.10;42.20;;;;;;6229318;28;20239;-63
2022/07/14 09:19:24;;;;;;;4.30;2.60;;;32.60;41.30;;;;;;6229130;28;20236;-63
2022/07/14 09:22:28;;;;;;;3.83;2.25;;;33.40;40.80;;;;;;6229490;28;20228;-63
2022/07/14 09:25:34;;;;;;;4.45;2.45;;;33.70;39.80;;;;;;6230004;28;20229;-63
2022/07/14 09:28:40;;;;;;;5.40;3.17;;;33.90;39.80;;;;;;6228955;28;20228;-63
2022/07/14 09:31:44;;;;;;;3.60;2.45;;;34.10;39.40;;;;;;6228621;28;20251;-64
2022/07/14 09:35:01;;;;;;;4.68;2.92;;;34.40;40.00;;;;;;6229277;28;20228;-64
2022/07/14 09:38:17;;;;;;;4.85;2.92;;;34.50;40.40;;;;;;6229403;28;20228;-64
2022/07/14 09:41:20;;;;;;;3.88;3.03;;;34.50;40.10;;;;;;6229413;28;20686;-64
2022/07/14 09:44:24;;;;;;;2.60;2.40;;;34.50;40.10;;;;;;6228593;28;20689;-64
2022/07/14 09:47:27;;;;;;;3.55;2.50;;;34.70;39.50;;;;;;6228530;28;20235;-64
2022/07/14 09:50:45;;;;;;;4.85;2.90;;;35.10;39.50;;;;;;6215798;28;20287;-65
2022/07/14 09:53:49;;;;;;;3.22;2.75;;;35.40;39.20;;;;;;6204189;28;20236;-65
2022/07/14 09:56:52;;;;;;;5.88;3.05;;;35.70;37.20;;;;;;6203931;28;20247;-65
2022/07/14 10:00:08;;;;;;;5.25;2.88;;;35.80;36.90;;;;;;6228092;28;20258;-65
2022/07/14 10:03:12;;;;;;;4.28;3.03;;;35.80;37.10;;;;;;6228035;28;20239;-65
2022/07/14 10:06:17;;;;;;;3.78;2.40;;;35.60;36.90;;;;;;6226833;28;20296;-64
2022/07/14 10:09:39;;;;;;;3.30;3.10;;;35.60;37.50;;;;;;6227887;28;20237;-64
2022/07/14 10:12:44;;;;;;;4.93;3.58;;;35.70;37.30;;;;;;6228075;28;20232;-64
2022/07/14 10:15:50;;;;;;;4.47;3.28;;;35.80;36.60;;;;;;6228780;28;20307;-64
2022/07/14 10:18:53;;;;;;;4.47;2.75;;;36.00;35.90;;;;;;6229189;28;20237;-65
2022/07/14 10:22:00;;;;;;;3.55;3.10;;;36.00;35.00;;;;;;6227039;28;20248;-64
2022/07/14 10:25:05;;;;;;;3.10;2.60;;;35.70;36.20;;;;;;6226003;28;20251;-63
2022/07/14 10:28:15;;;;;;;3.92;2.90;;;35.90;35.20;;;;;;6209931;28;20893;-64
2022/07/14 10:31:26;;;;;;;4.75;2.40;;;35.70;34.20;;;;;;6200145;28;20600;-65
2022/07/14 10:34:36;;;;;;;7.03;2.88;;;35.50;34.10;;;;;;6201154;28;20746;-65
2022/07/14 10:37:52;;;;;;;3.28;3.03;;;35.40;34.20;;;;;;6202011;28;20233;-64
2022/07/14 10:41:05;;;;;;;3.25;2.55;;;35.00;36.10;;;;;;6202993;28;20229;-66
2022/07/14 10:44:16;;;;;;;7.35;2.90;;;35.40;36.50;;;;;;6203369;28;20238;-66
2022/07/14 10:47:23;;;;;;;4.13;2.55;;;35.90;35.10;;;;;;6203498;28;20229;-66
2022/07/14 10:50:28;;;;;;;7.10;3.63;;;36.30;35.70;;;;;;6203011;28;20233;-66
2022/07/14 10:53:33;;;;;;;5.30;2.90;;;36.50;36.60;;;;;;6202760;28;20541;-66
2022/07/14 10:56:37;;;;;;;4.15;3.40;;;36.30;37.30;;;;;;6202976;28;20698;-66
2022/07/14 10:59:41;;;;;;;9.10;4.00;;;36.10;37.20;;;;;;6201813;28;20549;-66
2022/07/14 11:02:45;;;;;;;7.70;3.60;;;35.80;38.00;;;;;;6202923;28;20709;-67
2022/07/14 11:06:14;;;;;;;3.72;3.08;;;35.70;39.10;;;;;;6202647;28;20233;-66
2022/07/14 11:09:34;;;;;;;7.32;3.72;;;35.40;39.40;;;;;;6202503;28;20587;-66
2022/07/14 11:13:10;;;;;;;7.80;3.55;;;35.20;40.20;;;;;;6208246;28;20233;-66
2022/07/14 11:16:13;;;;;;;6.63;3.10;;;34.70;40.40;;;;;;6216331;28;20225;-66
2022/07/14 11:19:32;;;;;;;5.25;3.00;;;34.50;39.50;;;;;;6201744;28;20710;-66
2022/07/14 11:22:36;;;;;;;3.60;3.08;;;34.30;39.80;;;;;;6213941;28;20236;-66
2022/07/14 11:25:40;;;;;;;3.15;2.72;;;34.20;40.30;;;;;;6226461;28;20236;-67
2022/07/14 11:28:48;;;;;;;7.03;3.25;;;34.20;41.10;;;;;;6216344;28;20721;-66
2022/07/14 11:31:53;;;;;;;6.25;3.42;;;34.30;41.80;;;;;;6192933;28;20654;-66
2022/07/14 11:38:24;;;;;;;4.43;3.13;;;34.00;42.50;;;;;;6202481;28;20687;-66
2022/07/14 11:41:44;;;;;;;3.72;3.42;;;34.00;42.00;;;;;;6203053;28;20344;-66
2022/07/14 11:44:54;;;;;;;8.00;3.28;;;34.10;42.20;;;;;;6202018;28;20240;-66
2022/07/14 11:47:58;;;;;;;3.72;3.10;;;34.20;41.10;;;;;;6226120;28;20232;-65
2022/07/14 11:51:06;;;;;;;3.20;2.90;;;33.80;41.80;;;;;;6226257;28;20200;-65
2022/07/14 11:54:10;;;;;;;3.38;2.97;;;33.80;41.70;;;;;;6226619;28;20215;-67
2022/07/14 11:57:16;;;;;;;3.20;2.90;;;34.00;40.70;;;;;;6226691;28;20208;-66
2022/07/14 12:00:19;;;;;;;3.10;2.90;;;34.40;40.90;;;;;;6225695;28;20669;-67
2022/07/14 12:03:23;;;;;;;3.45;3.15;;;34.60;40.30;;;;;;6226293;28;20277;-66
2022/07/14 12:06:26;;;;;;;4.75;3.10;;;34.60;41.10;;;;;;6225519;28;20311;-66
2022/07/14 12:09:32;;;;;;;4.05;3.00;;;34.20;41.60;;;;;;6226108;28;20232;-66
2022/07/14 12:12:50;;;;;;;3.33;2.97;;;33.90;42.30;;;;;;6228583;28;20233;-67
2022/07/14 12:15:59;;;;;;;5.43;3.28;;;33.70;42.60;;;;;;6232495;28;20220;-66
2022/07/14 12:19:03;;;;;;;5.20;3.35;;;33.40;42.40;;;;;;6225650;28;20319;-65
2022/07/14 12:22:07;;;;;;;3.22;3.03;;;33.10;44.20;;;;;;6225084;28;20239;-65
2022/07/14 12:25:26;;;;;;;4.20;3.63;;;32.90;44.70;;;;;;6225115;28;20234;-66
2022/07/14 12:28:30;;;;;;;3.88;3.20;;;33.00;44.30;;;;;;6225005;28;20237;-66
2022/07/14 12:31:39;;;;;;;3.17;2.97;;;33.20;44.50;;;;;;6225368;28;20242;-65
2022/07/14 12:34:43;;;;;;;4.97;3.13;;;33.40;44.30;;;;;;6220453;28;20250;-65
2022/07/14 12:37:46;;;;;;;4.57;3.28;;;33.60;43.10;;;;;;6222641;28;20235;-66
2022/07/14 12:41:11;;;;;;;4.07;2.65;;;33.70;42.50;;;;;;6200104;28;20225;-66
2022/07/14 12:44:16;;;;;;;3.33;2.95;;;33.80;41.20;;;;;;6177123;28;20234;-65
2022/07/14 12:47:20;;;;;;;3.10;2.90;;;33.70;41.30;;;;;;6192091;28;20675;-64
2022/07/14 12:50:24;;;;;;;3.10;2.90;;;34.00;41.60;;;;;;6202208;28;20237;-65
2022/07/14 12:53:27;;;;;;;3.75;3.45;;;34.00;40.50;;;;;;6200747;28;20311;-66
2022/07/14 12:56:32;;;;;;;3.92;3.72;;;34.00;41.40;;;;;;6184368;28;20685;-66
2022/07/14 12:59:38;;;;;;;3.35;3.05;;;34.10;41.80;;;;;;6186554;28;20575;-65
2022/07/14 13:02:41;;;;;;;4.20;3.35;;;34.30;42.20;;;;;;6185428;28;20222;-66
2022/07/14 13:05:46;;;;;;;3.97;3.67;;;34.30;42.70;;;;;;6191642;28;20672;-65
2022/07/14 13:08:50;;;;;;;4.70;3.38;;;34.00;42.90;;;;;;6188178;28;20234;-64
2022/07/14 13:11:55;;;;;;;3.90;3.70;;;33.90;43.70;;;;;;6193195;28;20235;-65
2022/07/14 13:15:02;;;;;;;5.10;4.80;;;33.50;45.10;;;;;;6184215;28;20572;-65
2022/07/14 13:18:06;;;;;;;4.88;4.28;;;33.10;46.70;;;;;;6197043;28;20201;-65
2022/07/14 13:21:09;;;;;;;4.15;3.85;;;33.00;47.10;;;;;;6185792;28;20223;-65
2022/07/14 13:24:21;;;;;;;4.55;4.18;;;32.70;46.80;;;;;;6198821;28;20268;-65
2022/07/14 13:27:28;;;;;;;4.10;3.70;;;32.50;47.20;;;;;;6189274;28;20724;-65
2022/07/14 13:30:32;;;;;;;4.28;3.88;;;32.50;48.20;;;;;;6185229;28;20237;-65
2022/07/14 13:33:37;;;;;;;4.78;3.83;;;32.50;48.70;;;;;;6198984;28;20221;-65
2022/07/14 13:36:40;;;;;;;4.68;4.18;;;32.70;49.10;;;;;;6197805;28;20718;-65
2022/07/14 13:39:43;;;;;;;6.70;4.65;;;32.80;48.80;;;;;;6195401;28;20229;-64
2022/07/14 13:42:46;;;;;;;4.55;4.13;;;32.60;50.30;;;;;;6182923;28;20652;-64
2022/07/14 13:45:52;;;;;;;7.97;4.43;;;32.50;50.60;;;;;;6181335;28;20233;-64
2022/07/14 13:48:55;;;;;;;4.63;4.22;;;32.30;50.10;;;;;;6182991;28;20230;-63
2022/07/14 13:52:09;;;;;;;6.70;4.40;;;32.30;50.50;;;;;;6187594;28;20230;-63
2022/07/14 13:55:12;;;;;;;5.15;4.75;;;32.30;51.70;;;;;;6180189;28;20228;-64
2022/07/14 13:58:16;;;;;;;5.05;4.50;;;32.20;51.70;;;;;;6180599;28;20221;-66
2022/07/14 14:01:20;;;;;;;4.82;4.25;;;32.10;52.10;;;;;;6180827;28;20285;-65
2022/07/14 14:04:24;;;;;;;5.05;4.75;;;32.10;51.80;;;;;;6182027;28;20284;-64
2022/07/14 14:07:27;;;;;;;5.18;4.68;;;32.10;53.10;;;;;;6180488;28;20539;-64
2022/07/14 14:10:30;;;;;;;4.55;4.15;;;32.00;52.70;;;;;;6184310;28;20239;-64
2022/07/14 14:13:40;;;;;;;4.55;4.25;;;31.90;50.30;;;;;;6205502;28;20691;-64
2022/07/14 14:16:45;;;;;;;4.82;4.43;;;31.80;49.50;;;;;;6187346;28;20230;-65
2022/07/14 14:19:51;;;;;;;6.13;4.13;;;31.80;50.70;;;;;;6195160;28;20545;-64
2022/07/14 14:22:55;;;;;;;4.63;4.28;;;31.80;50.20;;;;;;6197423;28;20230;-64
2022/07/14 14:26:00;;;;;;;4.57;4.18;;;32.00;49.00;;;;;;6197213;28;20226;-65
2022/07/14 14:29:03;;;;;;;4.07;3.78;;;32.20;48.40;;;;;;6197974;28;20230;-65
2022/07/14 14:32:08;;;;;;;4.80;3.78;;;32.40;46.10;;;;;;6207706;28;20978;-65
2022/07/14 14:35:11;;;;;;;3.90;3.60;;;32.40;47.00;;;;;;6182603;28;20743;-64
2022/07/14 14:38:14;;;;;;;5.10;3.83;;;32.30;46.80;;;;;;6182066;28;20274;-65
2022/07/14 14:41:18;;;;;;;5.57;4.00;;;32.10;47.30;;;;;;6202401;28;20247;-66
2022/07/14 14:44:21;;;;;;;3.78;3.50;;;32.20;47.50;;;;;;6199831;28;20579;-68
2022/07/14 14:47:26;;;;;;;5.28;3.65;;;32.30;47.50;;;;;;6192074;28;20571;-66
2022/07/14 14:50:29;;;;;;;5.25;3.70;;;32.20;47.40;;;;;;6195299;28;20248;-67
2022/07/14 14:53:32;;;;;;;5.38;3.53;;;32.20;47.40;;;;;;6190808;28;20267;-69
2022/07/14 14:56:35;;;;;;;6.53;3.92;;;32.30;47.40;;;;;;6200079;28;20232;-67
2022/07/14 14:59:39;;;;;;;3.85;3.53;;;32.30;46.20;;;;;;6189320;28;20565;-65
2022/07/14 15:02:44;;;;;;;3.65;3.10;;;32.30;46.70;;;;;;6180555;28;20236;-66
2022/07/14 15:05:47;;;;;;;3.28;2.97;;;32.30;46.50;;;;;;6193826;28;20229;-68
2022/07/14 15:08:51;;;;;;;4.80;3.38;;;32.40;46.10;;;;;;6194405;28;20238;-62
2022/07/14 15:11:54;;;;;;;3.53;3.17;;;32.50;45.00;;;;;;6193183;28;20233;-64
2022/07/14 15:14:57;;;;;;;4.72;3.05;;;32.50;43.10;;;;;;6195160;28;20705;-63
2022/07/14 15:18:02;;;;;;;4.05;2.80;;;32.50;43.00;;;;;;6216685;28;20232;-63
2022/07/14 15:21:05;;;;;;;4.35;3.30;;;32.60;43.00;;;;;;6183754;28;20216;-63
2022/07/14 15:24:09;;;;;;;2.70;2.50;;;32.80;42.10;;;;;;6202572;28;20523;-63
2022/07/14 15:27:12;;;;;;;5.57;2.80;;;32.80;41.50;;;;;;6192994;28;20217;-62
2022/07/14 15:30:17;;;;;;;2.85;2.58;;;32.70;41.10;;;;;;6186780;28;20248;-64
2022/07/14 15:33:21;;;;;;;3.80;2.65;;;32.70;41.10;;;;;;6204720;28;20235;-64
2022/07/14 15:36:32;;;;;;;2.70;2.50;;;32.70;41.30;;;;;;6204158;28;20225;-64
2022/07/14 15:42:57;;;;;;;2.92;2.58;;;32.50;43.20;;;;;;6202313;28;20221;-64
2022/07/14 15:46:00;;;;;;;3.35;2.58;;;32.40;43.20;;;;;;6192769;28;20693;-63
2022/07/14 15:49:05;;;;;;;2.75;2.55;;;32.40;43.20;;;;;;6200283;28;20225;-63
2022/07/14 15:52:09;;;;;;;2.80;2.60;;;32.40;43.20;;;;;;6199818;28;20233;-63
2022/07/14 15:55:20;;;;;;;3.05;2.85;;;32.50;43.20;;;;;;6179065;28;20757;-64
2022/07/14 15:58:24;;;;;;;2.70;2.50;;;32.60;42.90;;;;;;6179168;28;20230;-64
2022/07/14 16:01:27;;;;;;;2.63;2.42;;;32.50;43.10;;;;;;6178793;28;20672;-64
2022/07/14 16:04:32;;;;;;;2.80;2.60;;;32.50;42.20;;;;;;6181253;28;20229;-63
2022/07/14 16:07:36;;;;;;;3.08;2.80;;;32.40;41.60;;;;;;6201190;28;20624;-64
2022/07/14 16:10:40;;;;;;;2.75;2.55;;;32.50;41.60;;;;;;6184841;28;20240;-64
2022/07/14 16:13:43;;;;;;;2.33;2.13;;;32.40;41.70;;;;;;6199476;28;20225;-63
2022/07/14 16:16:46;;;;;;;5.28;2.72;;;32.30;42.10;;;;;;6199410;28;20232;-64
2022/07/14 16:19:51;;;;;;;2.85;2.60;;;32.30;42.80;;;;;;6199643;28;20621;-63
2022/07/14 16:22:55;;;;;;;3.65;3.28;;;32.20;43.20;;;;;;6201393;28;20692;-63